Humboldt, Tennessee
Current Conditions -  °F | °C
As of 10:23 AM on Friday 31 Oct 2014 (Local Time) from KMKL Reporting Station
Overcast Overcast  
Wind Chill: 54°   Ceiling: 1500
Heat Index: 54°   Visibility: 10mi
Dew Point: 48°   Wind: 14mph
Humidity: 82%   Direction: 350°N
Pressure: 30.09"   Gusts: NA
Location:  35.82°N, 88.91°W
Report Text: KMKL 311523Z 35012KT 10SM BKN015 BKN044 OVC060 12/09 A3009 RMK AO2 P0001
Loading
Personal Weather Stations






























Interactive Weather Map
Tropical Storm Tracking
New forecast layout! Learn more

10-Day Weather Forecast

Advertisements
Track Severe Weather on mobile